Time;durP1;ratioP1;P1;durP2;ratioP2;P2;SDS_P1;SDS_P2;PMS_P1;PMS_P2;Temp;Humidity;BMP_temperature;BMP_pressure;BME280_temperature;BME280_humidity;BME280_pressure;Samples;Min_cycle;Max_cycle;Signal;HPM_P1;HPM_P2
2022/03/02 00:01:31;;;;;;;;;;;1.20;99.90;;;;;;5093058;28;19935;-74
2022/03/02 00:03:57;;;;;;;;;;;1.20;99.90;;;;;;5111296;28;19920;-73
2022/03/02 00:06:23;;;;;;;;;;;1.20;99.90;;;;;;5111138;28;19908;-73
2022/03/02 00:08:48;;;;;;;;;;;1.20;99.90;;;;;;5111249;28;19956;-73
2022/03/02 00:11:16;;;;;;;;;;;1.10;99.90;;;;;;5111046;28;19919;-72
2022/03/02 00:13:42;;;;;;;;;;;1.10;99.90;;;;;;5092880;28;19912;-72
2022/03/02 00:16:08;;;;;;;;;;;1.10;99.90;;;;;;5111419;28;19915;-73
2022/03/02 00:18:34;;;;;;;;;;;1.10;99.90;;;;;;5093021;28;19911;-73
2022/03/02 00:20:59;;;;;;;;;;;1.10;99.90;;;;;;5092642;28;20385;-74
2022/03/02 00:23:25;;;;;;;;;;;1.10;99.90;;;;;;5092766;28;19924;-73
2022/03/02 00:25:50;;;;;;;;;;;1.20;99.90;;;;;;5092616;28;20396;-73
2022/03/02 00:28:16;;;;;;;;;;;1.20;99.90;;;;;;5111227;28;19911;-73
2022/03/02 00:30:42;;;;;;;;;;;1.20;99.90;;;;;;5110976;28;19916;-73
2022/03/02 00:33:07;;;;;;;;;;;1.10;99.90;;;;;;5111074;28;20268;-73
2022/03/02 00:35:34;;;;;;;;;;;1.20;99.90;;;;;;5111168;28;19916;-73
2022/03/02 00:38:00;;;;;;;;;;;1.20;99.90;;;;;;5111025;28;19911;-72
2022/03/02 00:40:26;;;;;;;;;;;1.20;99.90;;;;;;5092735;28;19916;-72
2022/03/02 00:42:51;;;;;;;;;;;1.10;99.90;;;;;;5092457;28;19912;-73
2022/03/02 00:45:17;;;;;;;;;;;1.10;99.90;;;;;;5092621;28;20498;-73
2022/03/02 00:47:42;;;;;;;;;;;1.40;99.90;;;;;;5092695;28;19912;-72
2022/03/02 00:50:08;;;;;;;;;;;1.10;99.90;;;;;;5110878;28;19920;-74
2022/03/02 00:52:34;;;;;;;;;;;1.10;99.90;;;;;;5110460;28;20284;-74
2022/03/02 00:55:00;;;;;;;;;;;1.10;99.90;;;;;;5114338;28;19916;-72
2022/03/02 00:57:25;;;;;;;;;;;1.10;99.90;;;;;;5096626;28;19907;-72
2022/03/02 00:59:51;;;;;;;;;;;1.20;99.90;;;;;;5120696;27;19919;-72
2022/03/02 01:02:17;;;;;;;;;;;1.20;99.90;;;;;;5116457;27;19922;-72
2022/03/02 01:04:42;;;;;;;;;;;1.20;99.90;;;;;;5130330;27;20404;-73
2022/03/02 01:07:08;;;;;;;;;;;1.10;99.90;;;;;;5114584;28;20022;-74
2022/03/02 01:09:33;;;;;;;;;;;1.10;99.90;;;;;;5114678;28;19919;-73
2022/03/02 01:11:59;;;;;;;;;;;1.10;99.90;;;;;;5114211;28;19962;-73
2022/03/02 01:14:24;;;;;;;;;;;1.20;99.90;;;;;;5116504;27;20004;-73
2022/03/02 01:16:50;;;;;;;;;;;1.20;99.90;;;;;;5134939;27;20068;-73
2022/03/02 01:19:15;;;;;;;;;;;1.10;99.90;;;;;;5134734;27;19916;-73
2022/03/02 01:21:41;;;;;;;;;;;1.10;99.90;;;;;;5134676;27;19921;-73
2022/03/02 01:24:08;;;;;;;;;;;1.10;99.90;;;;;;5150635;27;19969;-73
2022/03/02 01:26:36;;;;;;;;;;;1.10;99.90;;;;;;5114200;28;20352;-73
2022/03/02 01:29:02;;;;;;;;;;;1.10;99.90;;;;;;5114534;28;20247;-73
2022/03/02 01:31:28;;;;;;;;;;;1.10;99.90;;;;;;5095514;28;19918;-74
2022/03/02 01:33:54;;;;;;;;;;;1.10;99.90;;;;;;5095188;28;19928;-73
2022/03/02 01:36:20;;;;;;;;;;;1.10;99.90;;;;;;5113839;28;20211;-74
2022/03/02 01:38:45;;;;;;;;;;;1.10;99.90;;;;;;5113718;28;19912;-73
2022/03/02 01:41:16;;;;;;;;;;;1.20;99.90;;;;;;5113824;28;20279;-73
2022/03/02 01:43:41;;;;;;;;;;;1.20;99.90;;;;;;5113458;28;19919;-73
2022/03/02 01:46:07;;;;;;;;;;;1.20;99.90;;;;;;5114107;28;20110;-73
2022/03/02 01:48:32;;;;;;;;;;;1.20;99.90;;;;;;5113751;28;19912;-73
2022/03/02 01:50:58;;;;;;;;;;;1.10;99.90;;;;;;5113757;28;19924;-74
2022/03/02 01:53:25;;;;;;;;;;;1.10;99.90;;;;;;5094716;28;20268;-74
2022/03/02 01:55:51;;;;;;;;;;;1.10;99.90;;;;;;5128489;27;19919;-74
2022/03/02 01:58:16;;;;;;;;;;;1.20;99.90;;;;;;5115804;27;19912;-74
2022/03/02 02:00:42;;;;;;;;;;;1.10;99.90;;;;;;5102432;28;19908;-73
2022/03/02 02:03:07;;;;;;;;;;;1.20;99.90;;;;;;5113000;28;20368;-74
2022/03/02 02:05:33;;;;;;;;;;;1.20;99.90;;;;;;5112848;28;19926;-74
2022/03/02 02:07:59;;;;;;;;;;;1.20;99.90;;;;;;5095094;28;20387;-73
2022/03/02 02:10:24;;;;;;;;;;;1.10;99.90;;;;;;5113504;28;19911;-73
2022/03/02 02:12:50;;;;;;;;;;;1.10;99.90;;;;;;5094616;28;19916;-73
2022/03/02 02:15:15;;;;;;;;;;;1.10;99.90;;;;;;5113463;28;19908;-73
2022/03/02 02:17:41;;;;;;;;;;;1.10;99.90;;;;;;5113343;28;19919;-73
2022/03/02 02:20:07;;;;;;;;;;;1.10;99.90;;;;;;5112913;28;19908;-73
2022/03/02 02:22:40;;;;;;;;;;;1.10;99.90;;;;;;5112665;28;19986;-74
2022/03/02 02:25:06;;;;;;;;;;;1.10;99.90;;;;;;5094680;28;19961;-73
2022/03/02 02:27:32;;;;;;;;;;;1.10;99.90;;;;;;5113085;28;20603;-72
2022/03/02 02:29:58;;;;;;;;;;;1.10;99.90;;;;;;5094446;28;19907;-73
2022/03/02 02:32:24;;;;;;;;;;;1.10;99.90;;;;;;5112926;28;19972;-73
2022/03/02 02:34:50;;;;;;;;;;;1.10;99.90;;;;;;5093965;28;19908;-73
2022/03/02 02:37:15;;;;;;;;;;;1.10;99.90;;;;;;5113041;28;19920;-73
2022/03/02 02:39:41;;;;;;;;;;;1.10;99.90;;;;;;5094250;28;19957;-74
2022/03/02 02:42:07;;;;;;;;;;;1.10;99.90;;;;;;5112645;28;20394;-74
2022/03/02 02:44:34;;;;;;;;;;;1.00;99.90;;;;;;5112147;28;19915;-74
2022/03/02 02:46:59;;;;;;;;;;;1.00;99.90;;;;;;5112726;28;20375;-72
2022/03/02 02:49:25;;;;;;;;;;;1.10;99.90;;;;;;5114693;27;19957;-73
2022/03/02 02:51:51;;;;;;;;;;;2.10;99.90;;;;;;5133137;27;20034;-75
2022/03/02 02:54:17;;;;;;;;;;;1.10;99.90;;;;;;5132893;27;19911;-72
2022/03/02 02:56:42;;;;;;;;;;;1.10;99.90;;;;;;5148859;27;19912;-73
2022/03/02 02:59:08;;;;;;;;;;;1.00;99.90;;;;;;5148442;27;20002;-72
2022/03/02 03:01:33;;;;;;;;;;;1.10;99.90;;;;;;5112325;28;20424;-73
2022/03/02 03:03:59;;;;;;;;;;;1.00;99.90;;;;;;5093748;28;19912;-72
2022/03/02 03:06:24;;;;;;;;;;;1.00;99.90;;;;;;5112960;27;20350;-73
2022/03/02 03:08:50;;;;;;;;;;;1.00;99.90;;;;;;5133085;27;19984;-73
2022/03/02 03:11:17;;;;;;;;;;;0.90;99.90;;;;;;5114628;27;20375;-72
2022/03/02 03:13:43;;;;;;;;;;;0.90;99.90;;;;;;5093373;28;19924;-72
2022/03/02 03:16:08;;;;;;;;;;;1.00;99.90;;;;;;5093169;28;19908;-73
2022/03/02 03:18:34;;;;;;;;;;;1.00;99.90;;;;;;5112135;28;19961;-73
2022/03/02 03:20:59;;;;;;;;;;;1.00;99.90;;;;;;5112341;28;19947;-72
2022/03/02 03:23:25;;;;;;;;;;;1.00;99.90;;;;;;5111930;28;20350;-72
2022/03/02 03:25:51;;;;;;;;;;;1.00;99.90;;;;;;5093682;28;20395;-73
2022/03/02 03:28:16;;;;;;;;;;;1.20;99.90;;;;;;5111998;28;19951;-73
2022/03/02 03:30:42;;;;;;;;;;;1.00;99.90;;;;;;5093135;28;19915;-73
2022/03/02 03:33:07;;;;;;;;;;;1.00;99.90;;;;;;5111631;28;19916;-73
2022/03/02 03:35:34;;;;;;;;;;;1.00;99.90;;;;;;5111673;28;19915;-73
2022/03/02 03:37:59;;;;;;;;;;;1.00;99.90;;;;;;5093560;28;19916;-74
2022/03/02 03:40:25;;;;;;;;;;;1.00;99.90;;;;;;5111642;28;19988;-74
2022/03/02 03:42:51;;;;;;;;;;;1.00;99.90;;;;;;5111478;28;19951;-73
2022/03/02 03:45:17;;;;;;;;;;;1.00;99.90;;;;;;5092847;28;19907;-73
2022/03/02 03:47:43;;;;;;;;;;;1.00;99.90;;;;;;5093403;28;19965;-72
2022/03/02 03:50:09;;;;;;;;;;;1.00;99.90;;;;;;5092938;28;19915;-72
2022/03/02 03:52:35;;;;;;;;;;;1.00;99.90;;;;;;5111382;28;19935;-74
2022/03/02 03:55:00;;;;;;;;;;;1.00;99.90;;;;;;5092871;28;20215;-73
2022/03/02 03:57:26;;;;;;;;;;;1.00;99.90;;;;;;5111541;28;19916;-73
2022/03/02 03:59:52;;;;;;;;;;;1.00;99.90;;;;;;5097036;28;19919;-72
2022/03/02 04:02:17;;;;;;;;;;;1.00;99.90;;;;;;5111536;28;20014;-74
2022/03/02 04:04:43;;;;;;;;;;;1.00;99.90;;;;;;5111005;28;19912;-73
2022/03/02 04:07:08;;;;;;;;;;;1.00;99.90;;;;;;5111498;28;19912;-73
2022/03/02 04:09:34;;;;;;;;;;;1.00;99.90;;;;;;5111324;28;19963;-73
2022/03/02 04:12:00;;;;;;;;;;;1.00;99.90;;;;;;5111264;28;20327;-73
2022/03/02 04:14:25;;;;;;;;;;;1.00;99.90;;;;;;5092421;28;19994;-74
2022/03/02 04:16:51;;;;;;;;;;;1.00;99.90;;;;;;5111373;28;19912;-73
2022/03/02 04:19:16;;;;;;;;;;;1.00;99.90;;;;;;5092724;28;19911;-73
2022/03/02 04:21:42;;;;;;;;;;;1.00;99.90;;;;;;5111154;28;20402;-73
2022/03/02 04:24:07;;;;;;;;;;;1.00;99.90;;;;;;5111097;28;20509;-74
2022/03/02 04:26:33;;;;;;;;;;;0.90;99.90;;;;;;5110669;28;19912;-73
2022/03/02 04:28:58;;;;;;;;;;;1.00;99.90;;;;;;5096695;28;19911;-72
2022/03/02 04:31:24;;;;;;;;;;;1.00;99.90;;;;;;5134139;27;19917;-72
2022/03/02 04:33:49;;;;;;;;;;;1.00;99.90;;;;;;5135617;27;19956;-73
2022/03/02 04:36:15;;;;;;;;;;;1.00;99.90;;;;;;5135305;27;19918;-73
2022/03/02 04:38:41;;;;;;;;;;;1.00;99.90;;;;;;5117203;27;19966;-72
2022/03/02 04:41:07;;;;;;;;;;;0.90;99.90;;;;;;5138138;27;20014;-72
2022/03/02 04:43:32;;;;;;;;;;;1.00;99.90;;;;;;5116878;27;20288;-72
2022/03/02 04:45:58;;;;;;;;;;;1.00;99.90;;;;;;5135147;27;19915;-75
2022/03/02 04:48:23;;;;;;;;;;;1.10;99.90;;;;;;5135682;27;19912;-73
2022/03/02 04:50:49;;;;;;;;;;;1.00;99.90;;;;;;5121305;27;20318;-73
2022/03/02 04:53:16;;;;;;;;;;;1.00;99.90;;;;;;5114817;28;19919;-72
2022/03/02 04:55:44;;;;;;;;;;;1.00;99.90;;;;;;5114820;28;20017;-73
2022/03/02 04:58:09;;;;;;;;;;;1.00;99.90;;;;;;5114886;27;19955;-73
2022/03/02 05:00:36;;;;;;;;;;;0.90;99.90;;;;;;5114679;28;19958;-73
2022/03/02 05:03:02;;;;;;;;;;;1.00;99.90;;;;;;5114472;28;19945;-73
2022/03/02 05:05:28;;;;;;;;;;;0.90;99.90;;;;;;5114609;28;20351;-72
2022/03/02 05:07:53;;;;;;;;;;;1.10;99.90;;;;;;5114768;28;20386;-73
2022/03/02 05:10:20;;;;;;;;;;;1.10;99.90;;;;;;5096016;28;19920;-73
2022/03/02 05:12:46;;;;;;;;;;;0.90;99.90;;;;;;5114522;28;19922;-73
2022/03/02 05:15:12;;;;;;;;;;;1.40;99.90;;;;;;5114671;28;19912;-73
2022/03/02 05:17:38;;;;;;;;;;;0.90;99.90;;;;;;5096013;28;19911;-73
2022/03/02 05:20:05;;;;;;;;;;;0.90;99.90;;;;;;5095981;28;20408;-73
2022/03/02 05:22:30;;;;;;;;;;;0.90;99.90;;;;;;5095604;28;20359;-74
2022/03/02 05:24:56;;;;;;;;;;;0.90;99.90;;;;;;5095930;28;19912;-73
2022/03/02 05:27:22;;;;;;;;;;;0.90;99.90;;;;;;5114055;28;20287;-74
2022/03/02 05:29:47;;;;;;;;;;;0.90;99.90;;;;;;5114273;28;19912;-73
2022/03/02 05:32:13;;;;;;;;;;;1.00;99.90;;;;;;5113969;28;19916;-73
2022/03/02 05:34:38;;;;;;;;;;;0.90;99.90;;;;;;5113844;28;19912;-73
2022/03/02 05:37:04;;;;;;;;;;;0.90;99.90;;;;;;5113915;28;19915;-73
2022/03/02 05:39:30;;;;;;;;;;;1.10;99.90;;;;;;5094500;28;19920;-72
2022/03/02 05:41:55;;;;;;;;;;;1.00;99.90;;;;;;5113772;28;20287;-73
2022/03/02 05:44:21;;;;;;;;;;;0.90;99.90;;;;;;5114049;28;20252;-73
2022/03/02 05:46:47;;;;;;;;;;;1.00;99.90;;;;;;5113984;28;19947;-73
2022/03/02 05:49:13;;;;;;;;;;;0.90;99.90;;;;;;5113796;28;19911;-73
2022/03/02 05:54:42;;;;;;;;;;;1.00;99.90;;;;;;5113602;28;19966;-73
2022/03/02 05:57:07;;;;;;;;;;;1.00;99.90;;;;;;5095285;28;20026;-73
2022/03/02 05:59:33;;;;;;;;;;;1.00;99.90;;;;;;5098974;28;19912;-75
2022/03/02 06:01:59;;;;;;;;;;;0.90;99.90;;;;;;5113282;28;20271;-73
2022/03/02 06:04:24;;;;;;;;;;;0.90;99.90;;;;;;5094935;28;19919;-73
2022/03/02 06:06:50;;;;;;;;;;;0.90;99.90;;;;;;5113562;28;20316;-74
2022/03/02 06:09:15;;;;;;;;;;;0.90;99.90;;;;;;5113479;28;19912;-73
2022/03/02 06:11:43;;;;;;;;;;;0.90;99.90;;;;;;5113687;28;20014;-72
2022/03/02 06:14:09;;;;;;;;;;;0.90;99.90;;;;;;5113744;28;19912;-73
2022/03/02 06:16:34;;;;;;;;;;;0.90;99.90;;;;;;5112678;28;19923;-73
2022/03/02 06:19:00;;;;;;;;;;;0.90;99.90;;;;;;5113488;28;19919;-74
2022/03/02 06:21:26;;;;;;;;;;;0.90;99.90;;;;;;5112927;28;19911;-74
2022/03/02 06:23:53;;;;;;;;;;;0.90;99.90;;;;;;5112819;28;19919;-72
2022/03/02 06:26:18;;;;;;;;;;;0.90;99.90;;;;;;5094491;28;19960;-73
2022/03/02 06:28:44;;;;;;;;;;;0.90;99.90;;;;;;5112726;28;19990;-76
2022/03/02 06:31:10;;;;;;;;;;;0.90;99.90;;;;;;5113007;28;19923;-74
2022/03/02 06:33:36;;;;;;;;;;;0.90;99.90;;;;;;5112712;28;20355;-73
2022/03/02 06:36:02;;;;;;;;;;;0.90;99.90;;;;;;5112632;28;19919;-73
2022/03/02 06:38:27;;;;;;;;;;;0.90;99.90;;;;;;5094399;28;20256;-74
2022/03/02 06:40:57;;;;;;;;;;;0.90;99.90;;;;;;5127833;27;19933;-73
2022/03/02 06:43:23;;;;;;;;;;;0.90;99.90;;;;;;5132861;27;19915;-75
2022/03/02 06:45:57;;;;;;;;;;;0.90;99.90;;;;;;5100932;28;20427;-72
2022/03/02 06:48:34;;;;;;;;;;;1.00;99.90;;;;;;5094427;28;20302;-72
2022/03/02 06:51:00;;;;;;;;;;;1.00;99.90;;;;;;5112085;28;19920;-73
2022/03/02 06:53:35;;;;;;;;;;;1.00;99.90;;;;;;5094040;28;19916;-73
2022/03/02 06:56:10;;;;;;;;;;;1.00;99.90;;;;;;5094248;28;19912;-74
2022/03/02 06:58:47;;;;;;;;;;;1.10;99.90;;;;;;5093889;28;19924;-74
2022/03/02 07:01:13;;;;;;;;;;;1.10;99.90;;;;;;5129886;27;19919;-74
2022/03/02 07:03:48;;;;;;;;;;;1.10;99.90;;;;;;5132838;27;19911;-73
2022/03/02 07:06:14;;;;;;;;;;;1.20;99.90;;;;;;5148870;27;19922;-74
2022/03/02 07:08:44;;;;;;;;;;;1.20;99.90;;;;;;5132564;27;19908;-72
2022/03/02 07:11:11;;;;;;;;;;;1.20;99.90;;;;;;5115513;27;19920;-74
2022/03/02 07:13:36;;;;;;;;;;;1.30;99.90;;;;;;5112081;28;20560;-73
2022/03/02 07:16:02;;;;;;;;;;;1.30;99.90;;;;;;5093938;28;20002;-74
2022/03/02 07:18:28;;;;;;;;;;;1.30;99.90;;;;;;5111975;28;19940;-73
2022/03/02 07:20:55;;;;;;;;;;;1.30;99.90;;;;;;5111824;28;19912;-73
2022/03/02 07:23:22;;;;;;;;;;;1.30;99.90;;;;;;5093296;28;19916;-73
2022/03/02 07:25:49;;;;;;;;;;;1.30;99.90;;;;;;5112270;28;20357;-73
2022/03/02 07:28:15;;;;;;;;;;;1.30;99.90;;;;;;5111791;28;19916;-73
2022/03/02 07:30:43;;;;;;;;;;;1.30;99.90;;;;;;5111725;28;19911;-73
2022/03/02 07:33:10;;;;;;;;;;;1.40;99.90;;;;;;5111489;28;19911;-74
2022/03/02 07:35:37;;;;;;;;;;;1.40;99.90;;;;;;5105882;27;20343;-74
2022/03/02 07:38:06;;;;;;;;;;;1.40;99.90;;;;;;5132116;27;19939;-75
2022/03/02 07:40:32;;;;;;;;;;;1.40;99.90;;;;;;5120796;27;19964;-74
2022/03/02 07:42:58;;;;;;;;;;;1.50;99.90;;;;;;5093141;28;20405;-74
2022/03/02 07:45:23;;;;;;;;;;;1.50;99.90;;;;;;5111776;28;19912;-73
2022/03/02 07:47:50;;;;;;;;;;;1.50;99.90;;;;;;5111627;28;19919;-74
2022/03/02 07:50:16;;;;;;;;;;;1.50;99.90;;;;;;5093056;28;20003;-73
2022/03/02 07:52:47;;;;;;;;;;;1.50;99.90;;;;;;5093173;28;19927;-73
2022/03/02 07:55:14;;;;;;;;;;;1.60;99.90;;;;;;5093112;28;20248;-73
2022/03/02 07:57:39;;;;;;;;;;;1.60;99.90;;;;;;5093803;28;19922;-72
2022/03/02 08:00:06;;;;;;;;;;;1.70;99.90;;;;;;5096747;28;19915;-74
2022/03/02 08:02:32;;;;;;;;;;;1.70;99.90;;;;;;5110927;28;20283;-74
2022/03/02 08:04:58;;;;;;;;;;;1.70;99.90;;;;;;5111508;28;19918;-72
2022/03/02 08:07:24;;;;;;;;;;;1.80;99.90;;;;;;5111815;28;19915;-72
2022/03/02 08:09:52;;;;;;;;;;;1.80;99.90;;;;;;5111473;28;19912;-74
2022/03/02 08:12:22;;;;;;;;;;;1.80;99.90;;;;;;5111795;28;19955;-73
2022/03/02 08:14:48;;;;;;;;;;;1.80;99.90;;;;;;5111258;28;19916;-74
2022/03/02 08:17:14;;;;;;;;;;;1.90;99.90;;;;;;5093647;28;19912;-73
2022/03/02 08:19:40;;;;;;;;;;;1.90;99.90;;;;;;5111095;28;20291;-74
2022/03/02 08:22:09;;;;;;;;;;;1.90;99.90;;;;;;5111417;28;19912;-73
2022/03/02 08:24:41;;;;;;;;;;;1.90;99.90;;;;;;5111470;28;20251;-74
2022/03/02 08:27:09;;;;;;;;;;;1.90;99.90;;;;;;5093184;28;20288;-72
2022/03/02 08:29:35;;;;;;;;;;;1.90;99.90;;;;;;5110773;28;20626;-74
2022/03/02 08:32:03;;;;;;;;;;;1.90;99.90;;;;;;5111075;28;20190;-74
2022/03/02 08:34:29;;;;;;;;;;;2.00;99.90;;;;;;5113712;28;19912;-74
2022/03/02 08:36:55;;;;;;;;;;;2.40;99.90;;;;;;5131672;28;19916;-74
2022/03/02 08:39:22;;;;;;;;;;;2.00;99.90;;;;;;5131315;28;19915;-73
2022/03/02 08:41:48;;;;;;;;;;;1.90;99.90;;;;;;5131847;28;19918;-73
2022/03/02 08:44:14;;;;;;;;;;;2.00;99.90;;;;;;5130302;28;20056;-74
2022/03/02 08:46:40;;;;;;;;;;;2.00;99.90;;;;;;5111366;28;20343;-73
2022/03/02 08:49:05;;;;;;;;;;;2.10;99.90;;;;;;5092537;28;19922;-74
2022/03/02 08:51:33;;;;;;;;;;;2.10;99.90;;;;;;5110575;28;19927;-76
2022/03/02 08:54:00;;;;;;;;;;;2.10;99.90;;;;;;5110561;28;20256;-74
2022/03/02 08:56:26;;;;;;;;;;;2.10;99.90;;;;;;5092227;28;19911;-73
2022/03/02 08:58:52;;;;;;;;;;;2.20;99.90;;;;;;5110858;28;19961;-73
2022/03/02 09:01:18;;;;;;;;;;;2.20;99.90;;;;;;5128709;28;20379;-73
2022/03/02 09:03:46;;;;;;;;;;;2.30;99.90;;;;;;5131078;28;19911;-74
2022/03/02 09:06:12;;;;;;;;;;;2.30;99.90;;;;;;5113867;28;19920;-74
2022/03/02 09:08:38;;;;;;;;;;;2.40;99.90;;;;;;5110771;28;19930;-73
2022/03/02 09:11:03;;;;;;;;;;;2.40;99.90;;;;;;5110783;28;19916;-74
2022/03/02 09:13:29;;;;;;;;;;;2.50;99.90;;;;;;5092558;28;19965;-74
2022/03/02 09:15:55;;;;;;;;;;;2.50;99.90;;;;;;5095739;28;19923;-74
2022/03/02 09:18:20;;;;;;;;;;;2.50;99.90;;;;;;5114781;28;19912;-73
2022/03/02 09:20:48;;;;;;;;;;;2.60;99.90;;;;;;5095942;28;19915;-75
2022/03/02 09:23:15;;;;;;;;;;;2.60;99.90;;;;;;5114460;28;19933;-75
2022/03/02 09:25:41;;;;;;;;;;;2.60;99.90;;;;;;5113917;28;20378;-73
2022/03/02 09:28:10;;;;;;;;;;;2.60;99.90;;;;;;5114348;28;19966;-73
2022/03/02 09:30:36;;;;;;;;;;;2.50;99.90;;;;;;5095112;28;19964;-72
2022/03/02 09:33:02;;;;;;;;;;;2.50;99.90;;;;;;5114124;28;19918;-73
2022/03/02 09:35:28;;;;;;;;;;;2.50;99.90;;;;;;5113938;28;19911;-74
2022/03/02 09:37:56;;;;;;;;;;;2.40;99.90;;;;;;5095766;28;19980;-72
2022/03/02 09:40:25;;;;;;;;;;;2.40;99.90;;;;;;5113790;28;19919;-72
2022/03/02 09:42:56;;;;;;;;;;;2.50;99.90;;;;;;5113792;28;19923;-73
2022/03/02 09:45:23;;;;;;;;;;;2.40;99.90;;;;;;5113890;28;19919;-75
2022/03/02 09:47:50;;;;;;;;;;;2.40;99.90;;;;;;5114093;28;19919;-73
2022/03/02 09:50:17;;;;;;;;;;;2.40;99.90;;;;;;5094923;28;19972;-74
2022/03/02 09:52:45;;;;;;;;;;;2.40;99.90;;;;;;5113831;28;19919;-73
2022/03/02 09:55:12;;;;;;;;;;;2.50;99.90;;;;;;5095293;28;20286;-74
2022/03/02 09:57:49;;;;;;;;;;;2.60;99.90;;;;;;5095383;28;19912;-73
2022/03/02 10:00:16;;;;;;;;;;;2.40;99.90;;;;;;5117572;27;19912;-73
2022/03/02 10:02:46;;;;;;;;;;;2.40;99.90;;;;;;5095012;28;19920;-74
2022/03/02 10:05:15;;;;;;;;;;;2.30;99.90;;;;;;5094948;28;19922;-73
2022/03/02 10:07:44;;;;;;;;;;;2.40;99.90;;;;;;5113519;28;19920;-73
2022/03/02 10:10:11;;;;;;;;;;;2.40;99.90;;;;;;5121593;27;20381;-74
2022/03/02 10:12:37;;;;;;;;;;;2.50;99.90;;;;;;5133694;27;20347;-73
2022/03/02 10:15:04;;;;;;;;;;;2.50;99.90;;;;;;5107873;28;19994;-72
2022/03/02 10:17:34;;;;;;;;;;;2.50;99.90;;;;;;5095159;28;20283;-72
2022/03/02 10:20:04;;;;;;;;;;;2.60;99.90;;;;;;5113056;28;19999;-73
2022/03/02 10:22:39;;;;;;;;;;;2.60;99.90;;;;;;5112741;28;19916;-73
2022/03/02 10:25:09;;;;;;;;;;;2.60;99.90;;;;;;5094501;28;20304;-73
2022/03/02 10:27:39;;;;;;;;;;;2.70;99.90;;;;;;5094908;28;19973;-74
2022/03/02 10:30:09;;;;;;;;;;;2.80;99.90;;;;;;5094616;28;19915;-74
2022/03/02 10:32:35;;;;;;;;;;;2.80;99.90;;;;;;5094340;28;19920;-73
2022/03/02 10:35:06;;;;;;;;;;;2.90;99.90;;;;;;5094360;28;19919;-73
2022/03/02 10:37:34;;;;;;;;;;;2.90;99.90;;;;;;5094694;28;20259;-73
2022/03/02 10:40:05;;;;;;;;;;;2.90;99.90;;;;;;5094538;28;20236;-74
2022/03/02 10:42:32;;;;;;;;;;;2.90;99.90;;;;;;5112183;28;19924;-73
2022/03/02 10:45:04;;;;;;;;;;;2.90;99.90;;;;;;5112733;28;19916;-73
2022/03/02 10:47:30;;;;;;;;;;;2.90;99.90;;;;;;5112553;28;19912;-74
2022/03/02 10:49:58;;;;;;;;;;;2.90;99.90;;;;;;5094049;28;19912;-72
2022/03/02 10:52:25;;;;;;;;;;;2.90;99.90;;;;;;5112049;28;19967;-73
2022/03/02 10:54:52;;;;;;;;;;;2.90;99.90;;;;;;5093902;28;19912;-74
2022/03/02 10:57:19;;;;;;;;;;;2.90;99.90;;;;;;5112522;28;19923;-74
2022/03/02 10:59:44;;;;;;;;;;;2.90;99.90;;;;;;5121179;27;20461;-73
2022/03/02 11:02:10;;;;;;;;;;;2.90;99.90;;;;;;5132607;27;20014;-74
2022/03/02 11:04:37;;;;;;;;;;;3.00;99.90;;;;;;5110214;28;19925;-73
2022/03/02 11:07:03;;;;;;;;;;;3.00;99.90;;;;;;5112170;28;20162;-74
2022/03/02 11:09:33;;;;;;;;;;;3.00;99.90;;;;;;5112156;28;20346;-75
2022/03/02 11:12:00;;;;;;;;;;;3.00;99.90;;;;;;5112009;28;19919;-73
2022/03/02 11:14:26;;;;;;;;;;;3.00;99.90;;;;;;5112068;28;19916;-72
2022/03/02 11:17:10;;;;;;;;;;;3.10;99.90;;;;;;5093904;28;20317;-73
2022/03/02 11:19:42;;;;;;;;;;;3.20;99.90;;;;;;5111849;28;20386;-74
2022/03/02 11:22:08;;;;;;;;;;;3.20;99.90;;;;;;5111710;28;19951;-73
2022/03/02 11:24:35;;;;;;;;;;;3.20;99.90;;;;;;5111619;28;19974;-76
2022/03/02 11:27:01;;;;;;;;;;;3.10;99.90;;;;;;5111806;28;19988;-73
2022/03/02 11:29:28;;;;;;;;;;;3.10;99.90;;;;;;5093473;28;20328;-72
2022/03/02 11:31:57;;;;;;;;;;;3.10;99.90;;;;;;5111630;28;19916;-74
2022/03/02 11:34:22;;;;;;;;;;;3.10;99.90;;;;;;5111534;28;19961;-74
2022/03/02 11:36:51;;;;;;;;;;;3.10;99.90;;;;;;5092889;28;19915;-74
2022/03/02 11:39:18;;;;;;;;;;;3.10;99.90;;;;;;5111815;28;19916;-74
2022/03/02 11:41:45;;;;;;;;;;;3.10;99.90;;;;;;5111570;28;20359;-74
2022/03/02 11:44:26;;;;;;;;;;;3.10;99.90;;;;;;5093316;28;20386;-74
2022/03/02 11:46:51;;;;;;;;;;;3.20;99.90;;;;;;5093249;28;19966;-75
2022/03/02 11:49:22;;;;;;;;;;;3.20;99.90;;;;;;5111473;28;19951;-75
2022/03/02 11:52:06;;;;;;;;;;;3.30;99.90;;;;;;5111729;28;19924;-73
2022/03/02 11:54:40;;;;;;;;;;;3.40;99.90;;;;;;5092921;28;19918;-74
2022/03/02 11:57:05;;;;;;;;;;;3.30;99.90;;;;;;5093707;28;19927;-74
2022/03/02 11:59:35;;;;;;;;;;;3.30;99.90;;;;;;5115536;27;20279;-73
2022/03/02 12:02:10;;;;;;;;;;;3.20;99.90;;;;;;5111381;28;19919;-73
2022/03/02 12:04:35;;;;;;;;;;;3.20;99.90;;;;;;5110988;28;19969;-74
2022/03/02 12:07:02;;;;;;;;;;;3.20;99.90;;;;;;5093107;28;19915;-73
2022/03/02 12:09:29;;;;;;;;;;;3.30;99.90;;;;;;5111504;28;20331;-73
2022/03/02 12:12:08;;;;;;;;;;;3.40;99.90;;;;;;5111284;28;19924;-73
2022/03/02 12:14:39;;;;;;;;;;;3.40;99.90;;;;;;5110881;28;20006;-74
2022/03/02 12:17:11;;;;;;;;;;;3.50;99.90;;;;;;5111415;28;19916;-73
2022/03/02 12:19:37;;;;;;;;;;;3.50;99.90;;;;;;5092608;28;19908;-73
2022/03/02 12:22:05;;;;;;;;;;;3.40;99.90;;;;;;5092626;28;19927;-73
2022/03/02 12:24:32;;;;;;;;;;;3.40;99.90;;;;;;5110604;28;19912;-73
2022/03/02 12:27:08;;;;;;;;;;;3.40;99.90;;;;;;5111075;28;19916;-74
2022/03/02 12:29:34;;;;;;;;;;;3.40;99.90;;;;;;5110687;28;19958;-74
2022/03/02 12:32:17;;;;;;;;;;;3.40;99.90;;;;;;5092625;28;19915;-74
2022/03/02 12:34:44;;;;;;;;;;;3.30;99.90;;;;;;5092365;28;19912;-74
2022/03/02 12:37:10;;;;;;;;;;;3.40;99.90;;;;;;5092779;28;19916;-72
2022/03/02 12:39:36;;;;;;;;;;;3.40;99.90;;;;;;5110813;28;20311;-73
2022/03/02 12:42:07;;;;;;;;;;;3.40;99.90;;;;;;5110996;28;20382;-77
2022/03/02 12:44:37;;;;;;;;;;;3.40;99.90;;;;;;5110273;28;20402;-73
2022/03/02 12:47:04;;;;;;;;;;;3.40;99.90;;;;;;5092917;28;19923;-73
2022/03/02 12:49:30;;;;;;;;;;;3.40;99.90;;;;;;5113760;28;19923;-73
2022/03/02 12:51:57;;;;;;;;;;;3.40;99.90;;;;;;5114597;28;19924;-75
2022/03/02 12:54:25;;;;;;;;;;;3.30;99.90;;;;;;5096191;28;19912;-74
2022/03/02 12:56:51;;;;;;;;;;;3.30;99.90;;;;;;5096509;28;19918;-74
2022/03/02 12:59:18;;;;;;;;;;;3.20;99.90;;;;;;5097192;27;20297;-73
2022/03/02 13:01:44;;;;;;;;;;;3.10;99.90;;;;;;5135401;27;19922;-74
2022/03/02 13:04:13;;;;;;;;;;;3.10;99.90;;;;;;5134732;27;19916;-72
2022/03/02 13:06:40;;;;;;;;;;;3.00;99.90;;;;;;5114601;28;19965;-75
2022/03/02 13:09:13;;;;;;;;;;;2.90;99.90;;;;;;5114577;28;19976;-75
2022/03/02 13:11:39;;;;;;;;;;;2.90;99.90;;;;;;5114889;28;19955;-74
2022/03/02 13:14:09;;;;;;;;;;;2.90;99.90;;;;;;5095737;28;19962;-72
2022/03/02 13:16:38;;;;;;;;;;;2.80;99.90;;;;;;5135312;27;19922;-73
2022/03/02 13:19:15;;;;;;;;;;;2.80;99.90;;;;;;5150851;27;19915;-74
2022/03/02 13:21:40;;;;;;;;;;;2.80;99.90;;;;;;5096152;28;19919;-74
2022/03/02 13:24:10;;;;;;;;;;;2.90;99.90;;;;;;5113882;28;20151;-74
2022/03/02 13:26:36;;;;;;;;;;;2.80;99.90;;;;;;5113933;28;19976;-74
2022/03/02 13:29:06;;;;;;;;;;;2.80;99.90;;;;;;5095551;28;20262;-74
2022/03/02 13:31:52;;;;;;;;;;;2.80;99.90;;;;;;5095660;28;19912;-73
2022/03/02 13:34:19;;;;;;;;;;;2.80;99.90;;;;;;5096228;27;20010;-74
2022/03/02 13:36:48;;;;;;;;;;;2.90;99.90;;;;;;5134745;27;19915;-73
2022/03/02 13:39:20;;;;;;;;;;;2.90;99.90;;;;;;5115835;27;20332;-73
2022/03/02 13:41:53;;;;;;;;;;;2.90;99.90;;;;;;5135039;27;19922;-73
2022/03/02 13:44:19;;;;;;;;;;;2.90;99.90;;;;;;5132704;27;19990;-74
2022/03/02 13:46:44;;;;;;;;;;;2.90;99.90;;;;;;5095580;28;19991;-74
2022/03/02 13:49:10;;;;;;;;;;;3.00;99.90;;;;;;5113481;28;19920;-74
2022/03/02 13:51:49;;;;;;;;;;;3.00;99.90;;;;;;5095296;28;20012;-74
2022/03/02 13:54:24;;;;;;;;;;;3.00;99.90;;;;;;5094775;28;20398;-74
2022/03/02 13:56:50;;;;;;;;;;;3.00;99.90;;;;;;5113778;28;19955;-74
2022/03/02 13:59:16;;;;;;;;;;;3.00;99.90;;;;;;5117253;27;19950;-73
2022/03/02 14:01:41;;;;;;;;;;;3.00;99.90;;;;;;5113043;28;19911;-74
2022/03/02 14:04:08;;;;;;;;;;;3.00;99.90;;;;;;5113073;28;20264;-73
2022/03/02 14:06:35;;;;;;;;;;;3.00;99.90;;;;;;5113537;28;19999;-73
2022/03/02 14:09:02;;;;;;;;;;;3.00;99.90;;;;;;5113230;28;19908;-74
2022/03/02 14:11:29;;;;;;;;;;;2.90;99.90;;;;;;5113382;28;20394;-73
2022/03/02 14:13:54;;;;;;;;;;;2.90;99.90;;;;;;5113398;28;19915;-73
2022/03/02 14:16:20;;;;;;;;;;;2.90;99.90;;;;;;5113011;28;19912;-73
2022/03/02 14:18:47;;;;;;;;;;;2.80;99.90;;;;;;5113439;28;19964;-74
2022/03/02 14:21:13;;;;;;;;;;;2.80;99.90;;;;;;5113177;28;20446;-74
2022/03/02 14:23:46;;;;;;;;;;;2.80;99.90;;;;;;5112989;28;20306;-74
2022/03/02 14:26:11;;;;;;;;;;;2.80;99.90;;;;;;5094688;28;20346;-73
2022/03/02 14:28:41;;;;;;;;;;;2.80;99.90;;;;;;5094682;28;19943;-73
2022/03/02 14:31:07;;;;;;;;;;;2.80;99.90;;;;;;5113236;28;19912;-73
2022/03/02 14:33:33;;;;;;;;;;;2.80;99.90;;;;;;5112685;28;20367;-75